sensor_id;sensor_type;location;lat;lon;timestamp;P1;durP1;ratioP1;P2;durP2;ratioP2
66189;SDS011;52992;52.084;5.412;2023-07-30T00:02:22;4.30;;;2.30;;
66189;SDS011;52992;52.084;5.412;2023-07-30T00:04:49;7.37;;;2.50;;
66189;SDS011;52992;52.084;5.412;2023-07-30T00:07:16;3.60;;;1.97;;
66189;SDS011;52992;52.084;5.412;2023-07-30T00:09:43;6.67;;;2.43;;
66189;SDS011;52992;52.084;5.412;2023-07-30T00:12:10;6.70;;;2.50;;
66189;SDS011;52992;52.084;5.412;2023-07-30T00:14:37;7.07;;;2.47;;
66189;SDS011;52992;52.084;5.412;2023-07-30T00:17:04;7.93;;;2.57;;
66189;SDS011;52992;52.084;5.412;2023-07-30T00:19:31;4.13;;;2.60;;
66189;SDS011;52992;52.084;5.412;2023-07-30T00:21:58;4.23;;;1.97;;
66189;SDS011;52992;52.084;5.412;2023-07-30T00:24:25;3.40;;;2.20;;
66189;SDS011;52992;52.084;5.412;2023-07-30T00:26:51;5.47;;;1.93;;
66189;SDS011;52992;52.084;5.412;2023-07-30T00:29:18;4.03;;;2.43;;
66189;SDS011;52992;52.084;5.412;2023-07-30T00:31:45;4.47;;;2.20;;
66189;SDS011;52992;52.084;5.412;2023-07-30T00:34:13;5.20;;;2.53;;
66189;SDS011;52992;52.084;5.412;2023-07-30T00:36:39;5.97;;;2.13;;
66189;SDS011;52992;52.084;5.412;2023-07-30T00:39:06;5.43;;;2.70;;
66189;SDS011;52992;52.084;5.412;2023-07-30T00:41:33;4.77;;;2.40;;
66189;SDS011;52992;52.084;5.412;2023-07-30T00:44:00;8.27;;;2.57;;
66189;SDS011;52992;52.084;5.412;2023-07-30T00:46:27;7.83;;;2.40;;
66189;SDS011;52992;52.084;5.412;2023-07-30T00:48:56;9.37;;;2.30;;
66189;SDS011;52992;52.084;5.412;2023-07-30T00:51:23;4.37;;;2.63;;
66189;SDS011;52992;52.084;5.412;2023-07-30T00:53:51;7.23;;;2.50;;
66189;SDS011;52992;52.084;5.412;2023-07-30T00:56:18;4.87;;;2.20;;
66189;SDS011;52992;52.084;5.412;2023-07-30T00:58:45;6.60;;;2.30;;
66189;SDS011;52992;52.084;5.412;2023-07-30T01:01:14;7.60;;;2.90;;
66189;SDS011;52992;52.084;5.412;2023-07-30T01:03:42;2.70;;;1.93;;
66189;SDS011;52992;52.084;5.412;2023-07-30T01:06:08;5.10;;;2.73;;
66189;SDS011;52992;52.084;5.412;2023-07-30T01:08:36;5.53;;;2.63;;
66189;SDS011;52992;52.084;5.412;2023-07-30T01:11:02;8.20;;;3.50;;
66189;SDS011;52992;52.084;5.412;2023-07-30T01:13:31;8.53;;;2.87;;
66189;SDS011;52992;52.084;5.412;2023-07-30T01:15:59;7.83;;;2.90;;
66189;SDS011;52992;52.084;5.412;2023-07-30T01:18:27;4.17;;;2.33;;
66189;SDS011;52992;52.084;5.412;2023-07-30T01:20:54;6.83;;;2.57;;
66189;SDS011;52992;52.084;5.412;2023-07-30T01:23:25;7.43;;;2.63;;
66189;SDS011;52992;52.084;5.412;2023-07-30T01:25:56;5.73;;;2.57;;
66189;SDS011;52992;52.084;5.412;2023-07-30T01:28:36;6.37;;;2.47;;
66189;SDS011;52992;52.084;5.412;2023-07-30T01:31:07;7.60;;;2.57;;
66189;SDS011;52992;52.084;5.412;2023-07-30T01:33:35;4.40;;;2.60;;
66189;SDS011;52992;52.084;5.412;2023-07-30T01:36:05;4.03;;;2.13;;
66189;SDS011;52992;52.084;5.412;2023-07-30T01:38:35;8.83;;;3.03;;
66189;SDS011;52992;52.084;5.412;2023-07-30T01:41:04;7.97;;;2.90;;
66189;SDS011;52992;52.084;5.412;2023-07-30T01:43:31;6.87;;;3.50;;
66189;SDS011;52992;52.084;5.412;2023-07-30T01:45:58;7.40;;;2.33;;
66189;SDS011;52992;52.084;5.412;2023-07-30T01:48:25;6.47;;;2.47;;
66189;SDS011;52992;52.084;5.412;2023-07-30T01:50:53;5.30;;;2.83;;
66189;SDS011;52992;52.084;5.412;2023-07-30T01:53:20;5.60;;;2.70;;
66189;SDS011;52992;52.084;5.412;2023-07-30T01:55:46;7.90;;;2.87;;
66189;SDS011;52992;52.084;5.412;2023-07-30T01:58:13;8.10;;;2.87;;
66189;SDS011;52992;52.084;5.412;2023-07-30T02:00:40;8.03;;;3.20;;
66189;SDS011;52992;52.084;5.412;2023-07-30T02:03:07;5.80;;;2.70;;
66189;SDS011;52992;52.084;5.412;2023-07-30T02:05:34;13.43;;;3.43;;
66189;SDS011;52992;52.084;5.412;2023-07-30T02:08:01;7.67;;;2.83;;
66189;SDS011;52992;52.084;5.412;2023-07-30T02:10:29;6.27;;;2.80;;
66189;SDS011;52992;52.084;5.412;2023-07-30T02:12:56;5.47;;;2.73;;
66189;SDS011;52992;52.084;5.412;2023-07-30T02:15:23;5.93;;;2.87;;
66189;SDS011;52992;52.084;5.412;2023-07-30T02:17:50;5.53;;;2.73;;
66189;SDS011;52992;52.084;5.412;2023-07-30T02:20:17;8.97;;;3.30;;
66189;SDS011;52992;52.084;5.412;2023-07-30T02:22:45;9.83;;;3.13;;
66189;SDS011;52992;52.084;5.412;2023-07-30T02:25:12;4.73;;;2.77;;
66189;SDS011;52992;52.084;5.412;2023-07-30T02:27:38;9.47;;;3.13;;
66189;SDS011;52992;52.084;5.412;2023-07-30T02:30:06;7.57;;;3.00;;
66189;SDS011;52992;52.084;5.412;2023-07-30T02:32:33;8.97;;;2.77;;
66189;SDS011;52992;52.084;5.412;2023-07-30T02:35:00;10.97;;;3.10;;
66189;SDS011;52992;52.084;5.412;2023-07-30T02:37:27;9.43;;;3.50;;
66189;SDS011;52992;52.084;5.412;2023-07-30T02:39:53;8.30;;;3.10;;
66189;SDS011;52992;52.084;5.412;2023-07-30T02:42:20;6.00;;;3.50;;
66189;SDS011;52992;52.084;5.412;2023-07-30T02:44:47;8.23;;;3.50;;
66189;SDS011;52992;52.084;5.412;2023-07-30T02:47:14;8.97;;;3.30;;
66189;SDS011;52992;52.084;5.412;2023-07-30T02:49:41;6.47;;;2.73;;
66189;SDS011;52992;52.084;5.412;2023-07-30T02:52:08;6.53;;;2.50;;
66189;SDS011;52992;52.084;5.412;2023-07-30T02:54:35;8.10;;;3.00;;
66189;SDS011;52992;52.084;5.412;2023-07-30T02:57:02;8.30;;;3.13;;
66189;SDS011;52992;52.084;5.412;2023-07-30T02:59:29;7.67;;;3.20;;
66189;SDS011;52992;52.084;5.412;2023-07-30T03:01:56;7.43;;;3.93;;
66189;SDS011;52992;52.084;5.412;2023-07-30T03:04:23;7.37;;;3.20;;
66189;SDS011;52992;52.084;5.412;2023-07-30T03:06:50;6.33;;;2.83;;
66189;SDS011;52992;52.084;5.412;2023-07-30T03:09:16;7.70;;;3.20;;
66189;SDS011;52992;52.084;5.412;2023-07-30T03:11:43;11.67;;;3.10;;
66189;SDS011;52992;52.084;5.412;2023-07-30T03:14:10;11.53;;;3.07;;
66189;SDS011;52992;52.084;5.412;2023-07-30T03:16:37;6.83;;;2.80;;
66189;SDS011;52992;52.084;5.412;2023-07-30T03:19:04;9.83;;;2.90;;
66189;SDS011;52992;52.084;5.412;2023-07-30T03:21:31;7.27;;;3.23;;
66189;SDS011;52992;52.084;5.412;2023-07-30T03:23:58;6.27;;;3.37;;
66189;SDS011;52992;52.084;5.412;2023-07-30T03:26:25;9.60;;;3.70;;
66189;SDS011;52992;52.084;5.412;2023-07-30T03:28:52;12.77;;;3.70;;
66189;SDS011;52992;52.084;5.412;2023-07-30T03:31:19;10.77;;;3.53;;
66189;SDS011;52992;52.084;5.412;2023-07-30T03:33:46;11.87;;;3.70;;
66189;SDS011;52992;52.084;5.412;2023-07-30T03:36:13;10.00;;;3.57;;
66189;SDS011;52992;52.084;5.412;2023-07-30T03:38:41;7.63;;;3.20;;
66189;SDS011;52992;52.084;5.412;2023-07-30T03:41:09;6.67;;;2.97;;
66189;SDS011;52992;52.084;5.412;2023-07-30T03:43:37;10.83;;;3.33;;
66189;SDS011;52992;52.084;5.412;2023-07-30T03:46:04;9.97;;;3.70;;
66189;SDS011;52992;52.084;5.412;2023-07-30T03:48:31;11.40;;;4.50;;
66189;SDS011;52992;52.084;5.412;2023-07-30T03:50:58;7.07;;;3.50;;
66189;SDS011;52992;52.084;5.412;2023-07-30T03:53:25;12.03;;;4.17;;
66189;SDS011;52992;52.084;5.412;2023-07-30T03:55:52;10.20;;;3.70;;
66189;SDS011;52992;52.084;5.412;2023-07-30T03:58:19;11.83;;;3.97;;
66189;SDS011;52992;52.084;5.412;2023-07-30T04:00:46;10.87;;;4.10;;
66189;SDS011;52992;52.084;5.412;2023-07-30T04:03:13;13.13;;;4.53;;
66189;SDS011;52992;52.084;5.412;2023-07-30T04:05:40;14.33;;;4.67;;
66189;SDS011;52992;52.084;5.412;2023-07-30T04:08:07;11.50;;;3.90;;
66189;SDS011;52992;52.084;5.412;2023-07-30T04:10:34;13.00;;;3.77;;
66189;SDS011;52992;52.084;5.412;2023-07-30T04:13:01;11.67;;;3.87;;
66189;SDS011;52992;52.084;5.412;2023-07-30T04:15:28;16.37;;;4.80;;
66189;SDS011;52992;52.084;5.412;2023-07-30T04:17:55;17.57;;;4.33;;
66189;SDS011;52992;52.084;5.412;2023-07-30T04:20:23;13.17;;;5.00;;
66189;SDS011;52992;52.084;5.412;2023-07-30T04:22:50;8.60;;;4.43;;
66189;SDS011;52992;52.084;5.412;2023-07-30T04:25:17;13.43;;;4.37;;
66189;SDS011;52992;52.084;5.412;2023-07-30T04:27:44;10.17;;;3.97;;
66189;SDS011;52992;52.084;5.412;2023-07-30T04:30:11;10.60;;;4.67;;
66189;SDS011;52992;52.084;5.412;2023-07-30T04:32:38;13.47;;;4.83;;
66189;SDS011;52992;52.084;5.412;2023-07-30T04:35:05;12.60;;;4.50;;
66189;SDS011;52992;52.084;5.412;2023-07-30T04:37:33;11.37;;;4.70;;
66189;SDS011;52992;52.084;5.412;2023-07-30T04:40:00;15.97;;;5.77;;
66189;SDS011;52992;52.084;5.412;2023-07-30T04:42:29;15.17;;;5.67;;
66189;SDS011;52992;52.084;5.412;2023-07-30T04:44:56;17.63;;;5.47;;
66189;SDS011;52992;52.084;5.412;2023-07-30T04:47:24;17.37;;;5.20;;
66189;SDS011;52992;52.084;5.412;2023-07-30T04:49:51;12.50;;;5.60;;
66189;SDS011;52992;52.084;5.412;2023-07-30T04:52:18;16.07;;;5.77;;
66189;SDS011;52992;52.084;5.412;2023-07-30T04:54:46;12.73;;;5.33;;
66189;SDS011;52992;52.084;5.412;2023-07-30T04:57:13;14.90;;;5.60;;
66189;SDS011;52992;52.084;5.412;2023-07-30T04:59:40;15.50;;;5.27;;
66189;SDS011;52992;52.084;5.412;2023-07-30T05:02:07;20.30;;;6.13;;
66189;SDS011;52992;52.084;5.412;2023-07-30T05:04:34;17.87;;;5.20;;
66189;SDS011;52992;52.084;5.412;2023-07-30T05:07:01;15.03;;;6.07;;
66189;SDS011;52992;52.084;5.412;2023-07-30T05:09:27;14.80;;;6.10;;
66189;SDS011;52992;52.084;5.412;2023-07-30T05:11:54;19.47;;;6.37;;
66189;SDS011;52992;52.084;5.412;2023-07-30T05:14:21;17.17;;;6.00;;
66189;SDS011;52992;52.084;5.412;2023-07-30T05:16:48;18.33;;;5.23;;
66189;SDS011;52992;52.084;5.412;2023-07-30T05:19:16;14.53;;;6.17;;
66189;SDS011;52992;52.084;5.412;2023-07-30T05:21:43;14.97;;;5.70;;
66189;SDS011;52992;52.084;5.412;2023-07-30T05:24:10;21.90;;;7.13;;
66189;SDS011;52992;52.084;5.412;2023-07-30T05:26:37;20.40;;;6.17;;
66189;SDS011;52992;52.084;5.412;2023-07-30T05:29:03;14.87;;;6.40;;
66189;SDS011;52992;52.084;5.412;2023-07-30T05:31:30;15.73;;;6.20;;
66189;SDS011;52992;52.084;5.412;2023-07-30T05:33:57;15.90;;;6.90;;
66189;SDS011;52992;52.084;5.412;2023-07-30T05:36:24;18.63;;;6.80;;
66189;SDS011;52992;52.084;5.412;2023-07-30T05:38:51;19.53;;;6.47;;
66189;SDS011;52992;52.084;5.412;2023-07-30T05:41:18;15.67;;;6.93;;
66189;SDS011;52992;52.084;5.412;2023-07-30T05:43:44;18.83;;;7.30;;
66189;SDS011;52992;52.084;5.412;2023-07-30T05:46:11;18.57;;;7.63;;
66189;SDS011;52992;52.084;5.412;2023-07-30T05:48:38;16.23;;;7.13;;
66189;SDS011;52992;52.084;5.412;2023-07-30T05:51:05;15.93;;;6.50;;
66189;SDS011;52992;52.084;5.412;2023-07-30T05:53:32;20.80;;;6.70;;
66189;SDS011;52992;52.084;5.412;2023-07-30T05:55:59;18.33;;;7.50;;
66189;SDS011;52992;52.084;5.412;2023-07-30T05:58:26;12.70;;;6.23;;
66189;SDS011;52992;52.084;5.412;2023-07-30T06:00:53;18.50;;;7.07;;
66189;SDS011;52992;52.084;5.412;2023-07-30T06:03:20;13.63;;;7.23;;
66189;SDS011;52992;52.084;5.412;2023-07-30T06:05:47;15.50;;;7.50;;
66189;SDS011;52992;52.084;5.412;2023-07-30T06:08:13;18.13;;;7.17;;
66189;SDS011;52992;52.084;5.412;2023-07-30T06:10:40;20.30;;;7.63;;
66189;SDS011;52992;52.084;5.412;2023-07-30T06:13:07;15.23;;;7.33;;
66189;SDS011;52992;52.084;5.412;2023-07-30T06:15:34;18.20;;;8.43;;
66189;SDS011;52992;52.084;5.412;2023-07-30T06:18:01;19.07;;;7.67;;
66189;SDS011;52992;52.084;5.412;2023-07-30T06:20:29;18.63;;;8.63;;
66189;SDS011;52992;52.084;5.412;2023-07-30T06:22:56;19.03;;;8.07;;
66189;SDS011;52992;52.084;5.412;2023-07-30T06:25:23;26.77;;;8.47;;
66189;SDS011;52992;52.084;5.412;2023-07-30T06:27:50;21.93;;;8.33;;
66189;SDS011;52992;52.084;5.412;2023-07-30T06:30:17;21.27;;;8.90;;
66189;SDS011;52992;52.084;5.412;2023-07-30T06:32:44;13.20;;;7.60;;
66189;SDS011;52992;52.084;5.412;2023-07-30T06:35:11;19.23;;;8.27;;
66189;SDS011;52992;52.084;5.412;2023-07-30T06:37:38;19.10;;;8.00;;
66189;SDS011;52992;52.084;5.412;2023-07-30T06:40:05;23.03;;;8.67;;
66189;SDS011;52992;52.084;5.412;2023-07-30T06:42:33;16.77;;;7.63;;
66189;SDS011;52992;52.084;5.412;2023-07-30T06:45:00;14.27;;;7.80;;
66189;SDS011;52992;52.084;5.412;2023-07-30T06:47:27;18.83;;;8.37;;
66189;SDS011;52992;52.084;5.412;2023-07-30T06:49:54;24.57;;;8.13;;
66189;SDS011;52992;52.084;5.412;2023-07-30T06:52:20;18.23;;;8.23;;
66189;SDS011;52992;52.084;5.412;2023-07-30T06:54:47;19.97;;;7.27;;
66189;SDS011;52992;52.084;5.412;2023-07-30T06:57:14;20.20;;;7.23;;
66189;SDS011;52992;52.084;5.412;2023-07-30T06:59:41;16.20;;;7.00;;
66189;SDS011;52992;52.084;5.412;2023-07-30T07:02:08;16.93;;;7.37;;
66189;SDS011;52992;52.084;5.412;2023-07-30T07:04:35;15.43;;;7.20;;
66189;SDS011;52992;52.084;5.412;2023-07-30T07:07:02;22.27;;;7.50;;
66189;SDS011;52992;52.084;5.412;2023-07-30T07:09:30;18.77;;;7.07;;
66189;SDS011;52992;52.084;5.412;2023-07-30T07:11:57;17.10;;;7.17;;
66189;SDS011;52992;52.084;5.412;2023-07-30T07:14:25;11.27;;;6.50;;
66189;SDS011;52992;52.084;5.412;2023-07-30T07:16:52;12.73;;;5.50;;
66189;SDS011;52992;52.084;5.412;2023-07-30T07:19:20;18.87;;;6.60;;
66189;SDS011;52992;52.084;5.412;2023-07-30T07:21:47;19.13;;;5.83;;
66189;SDS011;52992;52.084;5.412;2023-07-30T07:24:14;16.37;;;6.37;;
66189;SDS011;52992;52.084;5.412;2023-07-30T07:26:41;16.03;;;6.10;;
66189;SDS011;52992;52.084;5.412;2023-07-30T07:29:09;15.10;;;5.87;;
66189;SDS011;52992;52.084;5.412;2023-07-30T07:31:36;17.37;;;5.80;;
66189;SDS011;52992;52.084;5.412;2023-07-30T07:34:02;12.53;;;5.70;;
66189;SDS011;52992;52.084;5.412;2023-07-30T07:36:29;15.27;;;5.33;;
66189;SDS011;52992;52.084;5.412;2023-07-30T07:38:56;14.67;;;5.57;;
66189;SDS011;52992;52.084;5.412;2023-07-30T07:41:23;16.87;;;5.33;;
66189;SDS011;52992;52.084;5.412;2023-07-30T07:43:52;16.67;;;5.67;;
66189;SDS011;52992;52.084;5.412;2023-07-30T07:46:20;17.77;;;5.13;;
66189;SDS011;52992;52.084;5.412;2023-07-30T07:48:47;17.27;;;5.57;;
66189;SDS011;52992;52.084;5.412;2023-07-30T07:51:14;15.33;;;5.37;;
66189;SDS011;52992;52.084;5.412;2023-07-30T07:53:41;13.43;;;5.17;;
66189;SDS011;52992;52.084;5.412;2023-07-30T07:56:08;15.60;;;5.43;;
66189;SDS011;52992;52.084;5.412;2023-07-30T07:58:35;10.77;;;4.40;;
66189;SDS011;52992;52.084;5.412;2023-07-30T08:01:02;19.63;;;5.03;;
66189;SDS011;52992;52.084;5.412;2023-07-30T08:03:29;15.17;;;5.90;;
66189;SDS011;52992;52.084;5.412;2023-07-30T08:05:56;17.20;;;4.43;;
66189;SDS011;52992;52.084;5.412;2023-07-30T08:08:24;12.90;;;4.97;;
66189;SDS011;52992;52.084;5.412;2023-07-30T08:10:52;14.80;;;5.00;;
66189;SDS011;52992;52.084;5.412;2023-07-30T08:13:19;15.23;;;5.60;;
66189;SDS011;52992;52.084;5.412;2023-07-30T08:15:46;17.67;;;5.73;;
66189;SDS011;52992;52.084;5.412;2023-07-30T08:18:13;13.60;;;5.20;;
66189;SDS011;52992;52.084;5.412;2023-07-30T08:20:40;19.17;;;5.70;;
66189;SDS011;52992;52.084;5.412;2023-07-30T08:23:07;15.37;;;5.20;;
66189;SDS011;52992;52.084;5.412;2023-07-30T08:25:34;12.57;;;5.03;;
66189;SDS011;52992;52.084;5.412;2023-07-30T08:28:01;10.27;;;4.57;;
66189;SDS011;52992;52.084;5.412;2023-07-30T08:30:28;10.80;;;3.97;;
66189;SDS011;52992;52.084;5.412;2023-07-30T08:32:55;14.93;;;4.80;;
66189;SDS011;52992;52.084;5.412;2023-07-30T08:35:22;14.97;;;4.60;;
66189;SDS011;52992;52.084;5.412;2023-07-30T08:37:48;14.03;;;4.10;;
66189;SDS011;52992;52.084;5.412;2023-07-30T08:40:15;9.97;;;4.20;;
66189;SDS011;52992;52.084;5.412;2023-07-30T08:42:43;10.87;;;3.73;;
66189;SDS011;52992;52.084;5.412;2023-07-30T08:45:10;12.67;;;3.83;;
66189;SDS011;52992;52.084;5.412;2023-07-30T08:47:39;9.73;;;3.47;;
66189;SDS011;52992;52.084;5.412;2023-07-30T08:50:07;8.73;;;3.27;;
66189;SDS011;52992;52.084;5.412;2023-07-30T08:52:35;13.37;;;3.80;;
66189;SDS011;52992;52.084;5.412;2023-07-30T08:55:02;8.07;;;3.50;;
66189;SDS011;52992;52.084;5.412;2023-07-30T08:57:30;16.67;;;3.80;;
66189;SDS011;52992;52.084;5.412;2023-07-30T09:00:10;9.73;;;3.60;;
66189;SDS011;52992;52.084;5.412;2023-07-30T09:05:14;11.47;;;3.63;;
66189;SDS011;52992;52.084;5.412;2023-07-30T09:07:41;11.47;;;3.77;;
66189;SDS011;52992;52.084;5.412;2023-07-30T09:10:08;12.93;;;4.43;;
66189;SDS011;52992;52.084;5.412;2023-07-30T09:12:35;13.80;;;3.63;;
66189;SDS011;52992;52.084;5.412;2023-07-30T09:15:03;9.03;;;3.50;;
66189;SDS011;52992;52.084;5.412;2023-07-30T09:17:34;9.43;;;3.50;;
66189;SDS011;52992;52.084;5.412;2023-07-30T09:20:04;11.27;;;3.47;;
66189;SDS011;52992;52.084;5.412;2023-07-30T09:22:33;10.27;;;4.43;;
66189;SDS011;52992;52.084;5.412;2023-07-30T09:25:06;10.63;;;3.83;;
66189;SDS011;52992;52.084;5.412;2023-07-30T09:27:34;12.47;;;4.43;;
66189;SDS011;52992;52.084;5.412;2023-07-30T09:30:01;11.73;;;4.03;;
66189;SDS011;52992;52.084;5.412;2023-07-30T09:32:32;9.17;;;4.30;;
66189;SDS011;52992;52.084;5.412;2023-07-30T09:35:10;9.60;;;3.37;;
66189;SDS011;52992;52.084;5.412;2023-07-30T09:37:38;6.67;;;3.23;;
66189;SDS011;52992;52.084;5.412;2023-07-30T09:40:10;6.00;;;3.27;;
66189;SDS011;52992;52.084;5.412;2023-07-30T09:42:42;8.00;;;3.13;;
66189;SDS011;52992;52.084;5.412;2023-07-30T09:45:25;8.40;;;3.07;;
66189;SDS011;52992;52.084;5.412;2023-07-30T09:47:53;9.30;;;2.77;;
66189;SDS011;52992;52.084;5.412;2023-07-30T09:50:22;11.37;;;3.57;;
66189;SDS011;52992;52.084;5.412;2023-07-30T09:52:50;9.67;;;3.07;;
66189;SDS011;52992;52.084;5.412;2023-07-30T09:55:17;11.73;;;5.00;;
66189;SDS011;52992;52.084;5.412;2023-07-30T09:57:45;8.67;;;3.00;;
66189;SDS011;52992;52.084;5.412;2023-07-30T10:00:12;7.53;;;2.90;;
66189;SDS011;52992;52.084;5.412;2023-07-30T10:02:41;11.47;;;3.57;;
66189;SDS011;52992;52.084;5.412;2023-07-30T10:05:16;16.83;;;8.27;;
66189;SDS011;52992;52.084;5.412;2023-07-30T10:07:53;8.97;;;3.20;;
66189;SDS011;52992;52.084;5.412;2023-07-30T10:10:24;9.90;;;4.00;;
66189;SDS011;52992;52.084;5.412;2023-07-30T10:12:52;7.27;;;2.97;;
66189;SDS011;52992;52.084;5.412;2023-07-30T10:15:22;12.83;;;4.27;;
66189;SDS011;52992;52.084;5.412;2023-07-30T10:17:55;9.53;;;3.90;;
66189;SDS011;52992;52.084;5.412;2023-07-30T10:20:26;24.63;;;12.70;;
66189;SDS011;52992;52.084;5.412;2023-07-30T10:22:56;6.50;;;3.53;;
66189;SDS011;52992;52.084;5.412;2023-07-30T10:25:31;11.33;;;5.37;;
66189;SDS011;52992;52.084;5.412;2023-07-30T10:28:34;6.17;;;3.13;;
66189;SDS011;52992;52.084;5.412;2023-07-30T10:31:05;8.67;;;3.73;;
66189;SDS011;52992;52.084;5.412;2023-07-30T10:33:56;9.03;;;4.87;;
66189;SDS011;52992;52.084;5.412;2023-07-30T10:36:33;6.03;;;2.33;;
66189;SDS011;52992;52.084;5.412;2023-07-30T10:39:16;9.37;;;3.57;;
66189;SDS011;52992;52.084;5.412;2023-07-30T10:41:46;6.10;;;2.30;;
66189;SDS011;52992;52.084;5.412;2023-07-30T10:44:24;4.37;;;1.73;;
66189;SDS011;52992;52.084;5.412;2023-07-30T10:46:53;3.10;;;1.90;;
66189;SDS011;52992;52.084;5.412;2023-07-30T10:49:21;4.80;;;1.97;;
66189;SDS011;52992;52.084;5.412;2023-07-30T10:51:49;4.70;;;1.73;;
66189;SDS011;52992;52.084;5.412;2023-07-30T10:54:17;6.67;;;2.73;;
66189;SDS011;52992;52.084;5.412;2023-07-30T10:56:44;11.50;;;4.43;;
66189;SDS011;52992;52.084;5.412;2023-07-30T10:59:12;5.53;;;3.27;;
66189;SDS011;52992;52.084;5.412;2023-07-30T11:01:41;12.20;;;6.70;;
66189;SDS011;52992;52.084;5.412;2023-07-30T11:04:19;6.30;;;4.03;;
66189;SDS011;52992;52.084;5.412;2023-07-30T11:06:48;6.67;;;3.77;;
66189;SDS011;52992;52.084;5.412;2023-07-30T11:09:23;5.90;;;3.07;;
66189;SDS011;52992;52.084;5.412;2023-07-30T11:11:52;12.67;;;7.87;;
66189;SDS011;52992;52.084;5.412;2023-07-30T11:14:20;8.43;;;3.07;;
66189;SDS011;52992;52.084;5.412;2023-07-30T11:19:17;6.03;;;1.80;;
66189;SDS011;52992;52.084;5.412;2023-07-30T11:21:48;5.73;;;2.77;;
66189;SDS011;52992;52.084;5.412;2023-07-30T11:24:20;4.73;;;2.20;;
66189;SDS011;52992;52.084;5.412;2023-07-30T11:26:57;5.37;;;1.90;;
66189;SDS011;52992;52.084;5.412;2023-07-30T11:29:25;5.47;;;2.47;;
66189;SDS011;52992;52.084;5.412;2023-07-30T11:31:52;4.87;;;2.30;;
66189;SDS011;52992;52.084;5.412;2023-07-30T11:34:24;6.37;;;2.60;;
66189;SDS011;52992;52.084;5.412;2023-07-30T11:36:52;6.23;;;3.00;;
66189;SDS011;52992;52.084;5.412;2023-07-30T11:39:20;6.40;;;2.63;;
66189;SDS011;52992;52.084;5.412;2023-07-30T11:41:49;3.33;;;2.50;;
66189;SDS011;52992;52.084;5.412;2023-07-30T11:44:34;2.67;;;1.20;;
66189;SDS011;52992;52.084;5.412;2023-07-30T11:47:05;7.00;;;2.37;;
66189;SDS011;52992;52.084;5.412;2023-07-30T11:49:33;4.53;;;1.50;;
66189;SDS011;52992;52.084;5.412;2023-07-30T11:52:09;6.50;;;1.87;;
66189;SDS011;52992;52.084;5.412;2023-07-30T11:54:36;2.40;;;1.30;;
66189;SDS011;52992;52.084;5.412;2023-07-30T11:57:04;3.97;;;1.37;;
66189;SDS011;52992;52.084;5.412;2023-07-30T11:59:31;4.03;;;1.60;;
66189;SDS011;52992;52.084;5.412;2023-07-30T12:01:58;4.23;;;1.90;;
66189;SDS011;52992;52.084;5.412;2023-07-30T12:04:29;5.60;;;1.43;;
66189;SDS011;52992;52.084;5.412;2023-07-30T12:07:10;4.73;;;1.70;;
66189;SDS011;52992;52.084;5.412;2023-07-30T12:09:36;5.30;;;1.47;;
66189;SDS011;52992;52.084;5.412;2023-07-30T12:12:04;3.63;;;1.30;;
66189;SDS011;52992;52.084;5.412;2023-07-30T12:14:52;3.03;;;1.20;;
66189;SDS011;52992;52.084;5.412;2023-07-30T12:17:21;6.47;;;1.40;;
66189;SDS011;52992;52.084;5.412;2023-07-30T12:19:48;3.13;;;1.50;;
66189;SDS011;52992;52.084;5.412;2023-07-30T12:22:15;7.43;;;2.10;;
66189;SDS011;52992;52.084;5.412;2023-07-30T12:24:42;1.93;;;1.57;;
66189;SDS011;52992;52.084;5.412;2023-07-30T12:27:09;6.67;;;1.57;;
66189;SDS011;52992;52.084;5.412;2023-07-30T12:29:35;3.03;;;1.33;;
66189;SDS011;52992;52.084;5.412;2023-07-30T12:32:02;2.73;;;1.20;;
66189;SDS011;52992;52.084;5.412;2023-07-30T12:34:30;1.57;;;1.17;;
66189;SDS011;52992;52.084;5.412;2023-07-30T12:36:57;6.83;;;1.20;;
66189;SDS011;52992;52.084;5.412;2023-07-30T12:39:25;5.27;;;1.87;;
66189;SDS011;52992;52.084;5.412;2023-07-30T12:41:51;2.50;;;1.30;;
66189;SDS011;52992;52.084;5.412;2023-07-30T12:44:18;7.27;;;1.63;;
66189;SDS011;52992;52.084;5.412;2023-07-30T12:46:45;3.43;;;1.47;;
66189;SDS011;52992;52.084;5.412;2023-07-30T12:49:12;3.60;;;1.43;;
66189;SDS011;52992;52.084;5.412;2023-07-30T12:51:39;6.17;;;1.57;;
66189;SDS011;52992;52.084;5.412;2023-07-30T12:54:07;3.53;;;1.30;;
66189;SDS011;52992;52.084;5.412;2023-07-30T12:56:34;2.40;;;1.10;;
66189;SDS011;52992;52.084;5.412;2023-07-30T12:59:03;1.93;;;1.17;;
66189;SDS011;52992;52.084;5.412;2023-07-30T13:01:29;8.53;;;1.40;;
66189;SDS011;52992;52.084;5.412;2023-07-30T13:03:57;3.63;;;1.23;;
66189;SDS011;52992;52.084;5.412;2023-07-30T13:06:23;2.33;;;1.10;;
66189;SDS011;52992;52.084;5.412;2023-07-30T13:08:50;4.10;;;1.17;;
66189;SDS011;52992;52.084;5.412;2023-07-30T13:11:17;2.83;;;0.87;;
66189;SDS011;52992;52.084;5.412;2023-07-30T13:13:44;4.63;;;1.20;;
66189;SDS011;52992;52.084;5.412;2023-07-30T13:16:11;3.37;;;1.50;;
66189;SDS011;52992;52.084;5.412;2023-07-30T13:18:38;3.50;;;1.37;;
66189;SDS011;52992;52.084;5.412;2023-07-30T13:21:05;3.20;;;1.10;;
66189;SDS011;52992;52.084;5.412;2023-07-30T13:23:32;4.23;;;1.30;;
66189;SDS011;52992;52.084;5.412;2023-07-30T13:25:59;5.47;;;1.07;;
66189;SDS011;52992;52.084;5.412;2023-07-30T13:28:26;2.23;;;1.10;;
66189;SDS011;52992;52.084;5.412;2023-07-30T13:30:53;3.73;;;1.23;;
66189;SDS011;52992;52.084;5.412;2023-07-30T13:33:20;3.90;;;1.00;;
66189;SDS011;52992;52.084;5.412;2023-07-30T13:35:47;2.60;;;1.23;;
66189;SDS011;52992;52.084;5.412;2023-07-30T13:38:14;6.10;;;1.50;;
66189;SDS011;52992;52.084;5.412;2023-07-30T13:40:41;3.40;;;1.30;;
66189;SDS011;52992;52.084;5.412;2023-07-30T13:43:08;4.40;;;1.20;;
66189;SDS011;52992;52.084;5.412;2023-07-30T13:45:35;2.63;;;1.23;;
66189;SDS011;52992;52.084;5.412;2023-07-30T13:48:02;3.10;;;1.03;;
66189;SDS011;52992;52.084;5.412;2023-07-30T13:50:29;4.07;;;1.40;;
66189;SDS011;52992;52.084;5.412;2023-07-30T13:52:56;2.10;;;1.33;;
66189;SDS011;52992;52.084;5.412;2023-07-30T13:55:23;3.70;;;1.40;;
66189;SDS011;52992;52.084;5.412;2023-07-30T13:57:50;3.77;;;1.60;;
66189;SDS011;52992;52.084;5.412;2023-07-30T14:00:17;4.33;;;1.40;;
66189;SDS011;52992;52.084;5.412;2023-07-30T14:02:44;6.87;;;1.60;;
66189;SDS011;52992;52.084;5.412;2023-07-30T14:05:12;2.47;;;1.20;;
66189;SDS011;52992;52.084;5.412;2023-07-30T14:07:39;9.23;;;1.90;;
66189;SDS011;52992;52.084;5.412;2023-07-30T14:10:07;4.40;;;1.10;;
66189;SDS011;52992;52.084;5.412;2023-07-30T14:12:34;2.03;;;1.27;;
66189;SDS011;52992;52.084;5.412;2023-07-30T14:15:01;1.73;;;1.17;;
66189;SDS011;52992;52.084;5.412;2023-07-30T14:17:28;2.93;;;1.50;;
66189;SDS011;52992;52.084;5.412;2023-07-30T14:19:55;2.90;;;1.50;;
66189;SDS011;52992;52.084;5.412;2023-07-30T14:22:22;3.70;;;1.40;;
66189;SDS011;52992;52.084;5.412;2023-07-30T14:24:49;4.93;;;1.43;;
66189;SDS011;52992;52.084;5.412;2023-07-30T14:27:17;3.97;;;1.70;;
66189;SDS011;52992;52.084;5.412;2023-07-30T14:29:43;4.30;;;1.50;;
66189;SDS011;52992;52.084;5.412;2023-07-30T14:32:10;3.93;;;1.70;;
66189;SDS011;52992;52.084;5.412;2023-07-30T14:34:37;4.82;;;1.77;;
66189;SDS011;52992;52.084;5.412;2023-07-30T14:37:04;5.70;;;1.67;;
66189;SDS011;52992;52.084;5.412;2023-07-30T14:39:34;7.43;;;1.77;;
66189;SDS011;52992;52.084;5.412;2023-07-30T14:42:01;7.57;;;1.80;;
66189;SDS011;52992;52.084;5.412;2023-07-30T14:44:28;4.57;;;1.33;;
66189;SDS011;52992;52.084;5.412;2023-07-30T14:46:55;4.23;;;1.70;;
66189;SDS011;52992;52.084;5.412;2023-07-30T14:49:24;6.07;;;1.90;;
66189;SDS011;52992;52.084;5.412;2023-07-30T14:51:51;5.27;;;1.50;;
66189;SDS011;52992;52.084;5.412;2023-07-30T14:54:19;5.83;;;1.57;;